createdAt,value
2022-08-04T05:08:45.100Z,4.90
2022-08-04T05:26:12.851Z,4.80
2022-08-04T05:31:13.700Z,4.15
2022-08-04T05:36:21.832Z,4.00
2022-08-04T05:51:00.963Z,4.60
2022-08-04T05:55:58.850Z,3.90
2022-08-04T06:00:54.853Z,4.25
2022-08-04T06:05:49.733Z,5.00
2022-08-04T06:10:47.412Z,3.90
2022-08-04T06:24:27.642Z,4.07
2022-08-04T06:29:27.092Z,4.03
2022-08-04T06:34:20.945Z,4.25
2022-08-04T06:39:15.414Z,4.25
2022-08-04T06:52:32.372Z,3.50
2022-08-04T06:57:31.621Z,3.33
2022-08-04T07:02:27.869Z,3.58
2022-08-04T07:07:36.862Z,3.75
2022-08-04T07:22:18.854Z,3.05
2022-08-04T07:27:19.099Z,3.22
2022-08-04T07:32:33.442Z,3.13
2022-08-04T07:46:55.551Z,3.47
2022-08-04T07:51:49.624Z,2.78
2022-08-04T07:56:44.996Z,3.20
2022-08-04T08:12:36.635Z,3.38
2022-08-04T08:17:06.713Z,3.20
2022-08-04T08:22:02.188Z,3.30
2022-08-04T08:37:28.170Z,3.22
2022-08-04T08:42:42.590Z,2.88
2022-08-04T08:57:00.555Z,3.20
2022-08-04T09:02:08.289Z,2.70
2022-08-04T09:07:15.116Z,2.85
2022-08-04T09:12:25.906Z,3.25
2022-08-04T09:17:32.713Z,3.00
2022-08-04T09:22:42.745Z,2.83
2022-08-04T09:27:50.682Z,2.92
2022-08-04T09:32:56.089Z,3.05
2022-08-04T09:38:01.956Z,2.80
2022-08-04T09:43:06.705Z,3.00
2022-08-04T09:48:06.768Z,2.80
2022-08-04T09:53:12.565Z,2.60
2022-08-04T09:58:16.452Z,2.30
2022-08-04T10:03:20.663Z,2.80
2022-08-04T10:08:30.593Z,2.60
2022-08-04T10:13:43.827Z,2.72
2022-08-04T10:18:58.823Z,3.05
2022-08-04T10:24:30.040Z,2.33
2022-08-04T10:29:32.202Z,2.50
2022-08-04T10:34:32.055Z,2.30
2022-08-04T10:39:43.502Z,2.88
2022-08-04T10:44:56.963Z,3.00
2022-08-04T10:49:57.115Z,2.88
2022-08-04T10:54:59.052Z,3.05
2022-08-04T11:00:03.908Z,2.63
2022-08-04T11:05:07.663Z,2.67
2022-08-04T11:10:01.996Z,2.50
2022-08-04T11:15:01.903Z,2.50
2022-08-04T11:20:33.099Z,2.72
2022-08-04T11:25:22.413Z,2.60
2022-08-04T11:30:18.995Z,2.60
2022-08-04T11:35:18.670Z,2.50
2022-08-04T11:40:19.260Z,2.50
2022-08-04T11:45:18.287Z,2.55
2022-08-04T11:50:20.496Z,2.83
2022-08-04T11:55:16.657Z,3.03
2022-08-04T12:00:13.721Z,2.70
2022-08-04T12:05:35.759Z,2.80
2022-08-04T12:10:41.081Z,2.50
2022-08-04T12:15:42.333Z,2.47
2022-08-04T12:20:44.985Z,2.60
2022-08-04T12:25:45.636Z,2.55
2022-08-04T12:30:58.059Z,2.28
2022-08-04T12:36:10.821Z,2.53
2022-08-04T12:41:05.101Z,2.45
2022-08-04T12:46:05.264Z,2.40
2022-08-04T12:51:01.174Z,2.70
2022-08-04T12:56:01.921Z,2.38
2022-08-04T13:01:00.320Z,2.83
2022-08-04T13:05:56.008Z,2.65
2022-08-04T13:10:54.530Z,2.38
2022-08-04T13:15:59.202Z,2.58
2022-08-04T13:20:52.761Z,2.50
2022-08-04T13:26:44.582Z,2.25
2022-08-04T13:31:08.066Z,2.47
2022-08-04T13:36:02.720Z,2.33
2022-08-04T13:41:01.361Z,2.45
2022-08-04T13:46:02.060Z,2.60
2022-08-04T13:51:05.198Z,2.53
2022-08-04T13:56:01.354Z,2.40
2022-08-04T14:01:00.334Z,2.65
2022-08-04T14:06:26.221Z,2.70
2022-08-04T14:12:09.049Z,2.58
2022-08-04T14:16:35.408Z,2.47
2022-08-04T14:21:36.936Z,2.67
2022-08-04T14:26:34.140Z,2.60
2022-08-04T14:31:31.038Z,2.65
2022-08-04T14:36:27.755Z,3.20
2022-08-04T14:41:26.302Z,2.70
2022-08-04T14:46:21.473Z,4.57
2022-08-04T14:51:16.182Z,2.65
2022-08-04T14:56:25.060Z,2.50
2022-08-04T15:01:25.977Z,2.75
2022-08-04T15:06:23.072Z,2.65
2022-08-04T15:11:23.217Z,2.67
2022-08-04T15:16:17.740Z,3.30
2022-08-04T15:21:13.649Z,2.63
2022-08-04T15:26:11.237Z,2.55
2022-08-04T15:31:10.587Z,2.95
2022-08-04T15:36:35.930Z,2.60
2022-08-04T15:41:36.806Z,2.50
2022-08-04T15:47:08.649Z,3.08
2022-08-04T15:52:22.430Z,3.70
2022-08-04T15:57:16.752Z,2.40
2022-08-04T16:02:46.041Z,2.38
2022-08-04T16:08:04.853Z,2.60
2022-08-04T16:13:01.151Z,2.53
2022-08-04T16:17:55.503Z,2.83
2022-08-04T16:22:52.040Z,2.50
2022-08-04T16:27:47.001Z,2.42
2022-08-04T16:32:46.037Z,2.60
2022-08-04T16:37:44.030Z,2.53
2022-08-04T16:42:37.646Z,2.58
2022-08-04T16:48:07.793Z,2.83
2022-08-04T16:53:02.569Z,2.30
2022-08-04T16:57:58.860Z,2.80
2022-08-04T17:02:52.863Z,2.50
2022-08-04T17:08:19.824Z,2.50
2022-08-04T17:14:03.190Z,2.60
2022-08-04T17:18:43.942Z,2.63
2022-08-04T17:24:12.705Z,2.80
2022-08-04T17:28:56.853Z,2.47
2022-08-04T17:33:54.782Z,2.45
2022-08-04T17:38:55.698Z,2.67
2022-08-04T17:44:05.156Z,2.42
2022-08-04T17:49:02.915Z,2.75
2022-08-04T17:54:02.148Z,2.22
2022-08-04T17:59:16.347Z,2.80
2022-08-04T18:05:07.163Z,2.75
2022-08-04T18:10:28.876Z,3.00
2022-08-04T18:15:25.662Z,2.65
2022-08-04T18:20:34.492Z,2.67
2022-08-04T18:25:51.609Z,3.13
2022-08-04T18:30:54.852Z,3.08
2022-08-04T18:36:33.869Z,2.83
2022-08-04T18:41:04.266Z,3.08
2022-08-04T18:46:02.834Z,2.55
2022-08-04T18:51:08.935Z,3.03
2022-08-04T18:56:15.207Z,3.38
2022-08-04T19:01:14.761Z,2.90
2022-08-04T19:06:08.793Z,3.13
2022-08-04T19:11:38.480Z,3.00
2022-08-04T19:16:20.963Z,3.38
2022-08-04T19:21:15.027Z,3.45
2022-08-04T19:26:23.775Z,3.20
2022-08-04T19:31:28.390Z,3.78
2022-08-04T19:36:29.581Z,4.00
2022-08-04T19:41:26.483Z,3.60
2022-08-04T19:46:21.540Z,3.58
2022-08-04T19:51:21.165Z,3.80
2022-08-04T19:56:17.206Z,3.42
2022-08-04T20:01:14.418Z,3.80
2022-08-04T20:06:26.376Z,3.80
2022-08-04T20:11:21.389Z,3.88
2022-08-04T20:16:28.553Z,3.88
2022-08-04T20:21:36.520Z,3.95
2022-08-04T20:26:39.277Z,3.58
2022-08-04T20:31:33.651Z,3.53
2022-08-04T20:36:38.528Z,4.00
2022-08-04T20:41:44.892Z,4.40
2022-08-04T20:46:38.721Z,4.55
2022-08-04T20:51:33.338Z,4.25
2022-08-04T20:56:30.673Z,4.43
2022-08-04T21:01:27.111Z,5.00
